Terminal Aerodrome Forecast
Issued by NWS

Home | Current Version | Previous Version | Text Only | Print | Product List | Glossary Off
Versions: 1 2 3 4 5 6 7 8 9 10 11 12 13 14 15 16 17 18 19 20 21 22 23 24 25 26

889
FTUS43 KLOT 101132
TAFMDW
TAF
KMDW 101132Z 1012/1118 20010KT P6SM SCT050 OVC100
     FM102100 31010KT P6SM SCT025 BKN050
     FM111100 21007KT P6SM -SHSN SCT030 OVC040
      TEMPO 1116/1118 2SM -SHSN SCT020 BKN025=

USA.gov is the U.S. government's official web portal to all federal, state and local government web resources and services.